sensor_id;sensor_type;location;lat;lon;timestamp;temperature;humidity
25570;DHT22;17955;45.542;9.238;2022-07-18T00:01:55;29.40;71.70
25570;DHT22;17955;45.542;9.238;2022-07-18T00:04:22;29.40;71.60
25570;DHT22;17955;45.542;9.238;2022-07-18T00:06:50;29.40;71.60
25570;DHT22;17955;45.542;9.238;2022-07-18T00:09:17;29.40;71.40
25570;DHT22;17955;45.542;9.238;2022-07-18T00:11:45;29.40;71.20
25570;DHT22;17955;45.542;9.238;2022-07-18T00:14:12;29.50;71.20
25570;DHT22;17955;45.542;9.238;2022-07-18T00:16:39;29.50;71.10
25570;DHT22;17955;45.542;9.238;2022-07-18T00:19:06;29.30;71.10
25570;DHT22;17955;45.542;9.238;2022-07-18T00:21:35;29.10;71.40
25570;DHT22;17955;45.542;9.238;2022-07-18T00:24:03;29.20;71.50
25570;DHT22;17955;45.542;9.238;2022-07-18T00:26:30;29.30;71.20
25570;DHT22;17955;45.542;9.238;2022-07-18T00:28:57;29.10;71.50
25570;DHT22;17955;45.542;9.238;2022-07-18T00:31:26;29.00;71.80
25570;DHT22;17955;45.542;9.238;2022-07-18T00:33:53;28.90;72.60
25570;DHT22;17955;45.542;9.238;2022-07-18T00:36:20;29.00;71.90
25570;DHT22;17955;45.542;9.238;2022-07-18T00:38:47;29.10;71.60
25570;DHT22;17955;45.542;9.238;2022-07-18T00:41:16;29.00;71.60
25570;DHT22;17955;45.542;9.238;2022-07-18T00:43:43;29.20;71.30
25570;DHT22;17955;45.542;9.238;2022-07-18T00:46:11;29.10;71.30
25570;DHT22;17955;45.542;9.238;2022-07-18T00:48:38;29.20;71.20
25570;DHT22;17955;45.542;9.238;2022-07-18T00:51:05;29.30;71.20
25570;DHT22;17955;45.542;9.238;2022-07-18T00:53:32;29.00;71.20
25570;DHT22;17955;45.542;9.238;2022-07-18T00:56:00;29.10;71.10
25570;DHT22;17955;45.542;9.238;2022-07-18T00:58:29;28.90;71.40
25570;DHT22;17955;45.542;9.238;2022-07-18T01:00:57;28.80;71.70
25570;DHT22;17955;45.542;9.238;2022-07-18T01:03:42;28.70;71.60
25570;DHT22;17955;45.542;9.238;2022-07-18T01:06:09;28.70;71.70
25570;DHT22;17955;45.542;9.238;2022-07-18T01:08:36;28.50;71.90
25570;DHT22;17955;45.542;9.238;2022-07-18T01:11:03;28.70;71.90
25570;DHT22;17955;45.542;9.238;2022-07-18T01:13:32;28.80;71.60
25570;DHT22;17955;45.542;9.238;2022-07-18T01:15:59;28.80;71.70
25570;DHT22;17955;45.542;9.238;2022-07-18T01:18:26;28.70;71.70
25570;DHT22;17955;45.542;9.238;2022-07-18T01:20:55;28.80;71.60
25570;DHT22;17955;45.542;9.238;2022-07-18T01:23:22;28.90;71.50
25570;DHT22;17955;45.542;9.238;2022-07-18T01:25:49;28.90;71.20
25570;DHT22;17955;45.542;9.238;2022-07-18T01:28:16;28.90;71.20
25570;DHT22;17955;45.542;9.238;2022-07-18T01:30:43;28.90;71.10
25570;DHT22;17955;45.542;9.238;2022-07-18T01:33:10;28.80;71.20
25570;DHT22;17955;45.542;9.238;2022-07-18T01:35:37;28.70;71.40
25570;DHT22;17955;45.542;9.238;2022-07-18T01:38:05;28.70;71.50
25570;DHT22;17955;45.542;9.238;2022-07-18T01:40:33;28.40;71.60
25570;DHT22;17955;45.542;9.238;2022-07-18T01:43:00;28.40;71.90
25570;DHT22;17955;45.542;9.238;2022-07-18T01:45:27;28.40;71.90
25570;DHT22;17955;45.542;9.238;2022-07-18T01:47:54;28.30;72.10
25570;DHT22;17955;45.542;9.238;2022-07-18T01:50:21;28.40;71.90
25570;DHT22;17955;45.542;9.238;2022-07-18T01:52:48;28.30;71.90
25570;DHT22;17955;45.542;9.238;2022-07-18T01:55:16;28.50;71.70
25570;DHT22;17955;45.542;9.238;2022-07-18T01:57:43;28.50;71.30
25570;DHT22;17955;45.542;9.238;2022-07-18T02:00:11;28.50;71.30
25570;DHT22;17955;45.542;9.238;2022-07-18T02:02:39;28.80;71.00
25570;DHT22;17955;45.542;9.238;2022-07-18T02:05:07;28.80;70.60
25570;DHT22;17955;45.542;9.238;2022-07-18T02:07:36;28.70;70.70
25570;DHT22;17955;45.542;9.238;2022-07-18T02:10:06;28.70;70.80
25570;DHT22;17955;45.542;9.238;2022-07-18T02:12:36;28.80;70.80
25570;DHT22;17955;45.542;9.238;2022-07-18T02:15:04;28.80;70.40
25570;DHT22;17955;45.542;9.238;2022-07-18T02:17:31;28.60;70.40
25570;DHT22;17955;45.542;9.238;2022-07-18T02:19:58;28.50;70.80
25570;DHT22;17955;45.542;9.238;2022-07-18T02:22:25;28.50;70.90
25570;DHT22;17955;45.542;9.238;2022-07-18T02:24:53;28.60;71.50
25570;DHT22;17955;45.542;9.238;2022-07-18T02:27:20;28.60;70.60
25570;DHT22;17955;45.542;9.238;2022-07-18T02:29:48;28.50;70.60
25570;DHT22;17955;45.542;9.238;2022-07-18T02:32:15;28.40;70.90
25570;DHT22;17955;45.542;9.238;2022-07-18T02:34:42;28.50;70.90
25570;DHT22;17955;45.542;9.238;2022-07-18T02:37:09;28.40;70.90
25570;DHT22;17955;45.542;9.238;2022-07-18T02:39:36;28.40;70.90
25570;DHT22;17955;45.542;9.238;2022-07-18T02:42:03;28.50;70.80
25570;DHT22;17955;45.542;9.238;2022-07-18T02:44:31;28.40;70.90
25570;DHT22;17955;45.542;9.238;2022-07-18T02:46:59;28.50;70.90
25570;DHT22;17955;45.542;9.238;2022-07-18T02:49:26;28.50;70.90
25570;DHT22;17955;45.542;9.238;2022-07-18T02:51:54;28.70;70.80
25570;DHT22;17955;45.542;9.238;2022-07-18T02:54:22;28.80;70.60
25570;DHT22;17955;45.542;9.238;2022-07-18T02:56:50;28.70;70.60
25570;DHT22;17955;45.542;9.238;2022-07-18T02:59:17;28.80;70.50
25570;DHT22;17955;45.542;9.238;2022-07-18T03:01:44;28.90;70.30
25570;DHT22;17955;45.542;9.238;2022-07-18T03:04:13;28.80;70.20
25570;DHT22;17955;45.542;9.238;2022-07-18T03:06:40;28.90;70.20
25570;DHT22;17955;45.542;9.238;2022-07-18T03:09:07;28.90;70.30
25570;DHT22;17955;45.542;9.238;2022-07-18T03:11:34;28.90;70.20
25570;DHT22;17955;45.542;9.238;2022-07-18T03:14:02;29.00;69.90
25570;DHT22;17955;45.542;9.238;2022-07-18T03:16:29;28.80;70.10
25570;DHT22;17955;45.542;9.238;2022-07-18T03:18:56;28.80;70.00
25570;DHT22;17955;45.542;9.238;2022-07-18T03:21:24;28.90;70.10
25570;DHT22;17955;45.542;9.238;2022-07-18T03:23:51;28.80;70.00
25570;DHT22;17955;45.542;9.238;2022-07-18T03:26:19;28.70;70.30
25570;DHT22;17955;45.542;9.238;2022-07-18T03:28:46;28.60;70.40
25570;DHT22;17955;45.542;9.238;2022-07-18T03:31:13;28.70;71.20
25570;DHT22;17955;45.542;9.238;2022-07-18T03:33:40;28.50;70.60
25570;DHT22;17955;45.542;9.238;2022-07-18T03:36:07;28.70;70.60
25570;DHT22;17955;45.542;9.238;2022-07-18T03:38:35;28.90;70.30
25570;DHT22;17955;45.542;9.238;2022-07-18T03:41:02;28.90;70.30
25570;DHT22;17955;45.542;9.238;2022-07-18T03:43:30;28.90;70.10
25570;DHT22;17955;45.542;9.238;2022-07-18T03:45:57;29.10;69.70
25570;DHT22;17955;45.542;9.238;2022-07-18T03:48:24;29.00;69.40
25570;DHT22;17955;45.542;9.238;2022-07-18T03:50:51;29.00;69.50
25570;DHT22;17955;45.542;9.238;2022-07-18T03:53:18;28.90;69.50
25570;DHT22;17955;45.542;9.238;2022-07-18T03:55:46;29.00;69.30
25570;DHT22;17955;45.542;9.238;2022-07-18T03:58:13;28.70;69.30
25570;DHT22;17955;45.542;9.238;2022-07-18T04:00:40;28.80;69.20
25570;DHT22;17955;45.542;9.238;2022-07-18T04:03:07;29.00;68.80
25570;DHT22;17955;45.542;9.238;2022-07-18T04:05:34;29.10;68.20
25570;DHT22;17955;45.542;9.238;2022-07-18T04:08:01;28.90;68.20
25570;DHT22;17955;45.542;9.238;2022-07-18T04:10:28;28.70;68.50
25570;DHT22;17955;45.542;9.238;2022-07-18T04:12:56;28.70;68.50
25570;DHT22;17955;45.542;9.238;2022-07-18T04:15:25;28.70;68.60
25570;DHT22;17955;45.542;9.238;2022-07-18T04:17:52;28.60;68.40
25570;DHT22;17955;45.542;9.238;2022-07-18T04:20:20;28.50;68.60
25570;DHT22;17955;45.542;9.238;2022-07-18T04:22:50;28.50;68.70
25570;DHT22;17955;45.542;9.238;2022-07-18T04:25:18;28.50;68.60
25570;DHT22;17955;45.542;9.238;2022-07-18T04:27:47;28.60;68.50
25570;DHT22;17955;45.542;9.238;2022-07-18T04:30:18;28.50;68.40
25570;DHT22;17955;45.542;9.238;2022-07-18T04:32:45;28.70;68.50
25570;DHT22;17955;45.542;9.238;2022-07-18T04:35:12;28.90;68.30
25570;DHT22;17955;45.542;9.238;2022-07-18T04:37:39;29.00;67.90
25570;DHT22;17955;45.542;9.238;2022-07-18T04:40:08;29.00;67.90
25570;DHT22;17955;45.542;9.238;2022-07-18T04:42:36;29.00;67.70
25570;DHT22;17955;45.542;9.238;2022-07-18T04:45:04;29.20;67.40
25570;DHT22;17955;45.542;9.238;2022-07-18T04:47:33;29.50;66.70
25570;DHT22;17955;45.542;9.238;2022-07-18T04:50:00;29.80;66.10
25570;DHT22;17955;45.542;9.238;2022-07-18T04:52:27;30.10;65.50
25570;DHT22;17955;45.542;9.238;2022-07-18T04:55:01;30.60;64.70
25570;DHT22;17955;45.542;9.238;2022-07-18T04:57:28;30.80;64.00
25570;DHT22;17955;45.542;9.238;2022-07-18T04:59:55;30.60;63.30
25570;DHT22;17955;45.542;9.238;2022-07-18T05:02:22;30.60;63.20
25570;DHT22;17955;45.542;9.238;2022-07-18T05:04:50;30.50;63.30
25570;DHT22;17955;45.542;9.238;2022-07-18T05:07:17;30.30;63.60
25570;DHT22;17955;45.542;9.238;2022-07-18T05:09:44;30.00;64.80
25570;DHT22;17955;45.542;9.238;2022-07-18T05:12:11;29.80;64.60
25570;DHT22;17955;45.542;9.238;2022-07-18T05:14:38;29.70;65.10
25570;DHT22;17955;45.542;9.238;2022-07-18T05:17:05;30.30;64.80
25570;DHT22;17955;45.542;9.238;2022-07-18T05:19:33;30.70;63.60
25570;DHT22;17955;45.542;9.238;2022-07-18T05:22:01;30.90;62.90
25570;DHT22;17955;45.542;9.238;2022-07-18T05:24:28;30.60;63.80
25570;DHT22;17955;45.542;9.238;2022-07-18T05:26:55;30.30;63.50
25570;DHT22;17955;45.542;9.238;2022-07-18T05:29:22;30.00;64.00
25570;DHT22;17955;45.542;9.238;2022-07-18T05:31:49;29.40;64.10
25570;DHT22;17955;45.542;9.238;2022-07-18T05:34:16;29.30;64.70
25570;DHT22;17955;45.542;9.238;2022-07-18T05:36:44;30.20;64.10
25570;DHT22;17955;45.542;9.238;2022-07-18T05:39:12;31.00;62.70
25570;DHT22;17955;45.542;9.238;2022-07-18T05:41:39;31.70;60.80
25570;DHT22;17955;45.542;9.238;2022-07-18T05:44:06;32.30;59.90
25570;DHT22;17955;45.542;9.238;2022-07-18T05:46:33;32.50;59.30
25570;DHT22;17955;45.542;9.238;2022-07-18T05:49:00;32.70;58.90
25570;DHT22;17955;45.542;9.238;2022-07-18T05:51:28;32.80;58.70
25570;DHT22;17955;45.542;9.238;2022-07-18T05:53:55;33.10;58.30
25570;DHT22;17955;45.542;9.238;2022-07-18T05:56:23;33.30;58.00
25570;DHT22;17955;45.542;9.238;2022-07-18T05:58:50;33.60;57.70
25570;DHT22;17955;45.542;9.238;2022-07-18T06:01:17;33.60;57.40
25570;DHT22;17955;45.542;9.238;2022-07-18T06:03:46;34.00;56.90
25570;DHT22;17955;45.542;9.238;2022-07-18T06:06:13;34.20;56.60
25570;DHT22;17955;45.542;9.238;2022-07-18T06:08:40;34.40;56.70
25570;DHT22;17955;45.542;9.238;2022-07-18T06:11:07;34.40;55.90
25570;DHT22;17955;45.542;9.238;2022-07-18T06:13:36;34.50;55.90
25570;DHT22;17955;45.542;9.238;2022-07-18T06:16:05;34.70;55.50
25570;DHT22;17955;45.542;9.238;2022-07-18T06:18:32;34.20;55.20
25570;DHT22;17955;45.542;9.238;2022-07-18T06:21:00;34.10;55.70
25570;DHT22;17955;45.542;9.238;2022-07-18T06:23:27;34.10;55.90
25570;DHT22;17955;45.542;9.238;2022-07-18T06:25:55;34.00;55.70
25570;DHT22;17955;45.542;9.238;2022-07-18T06:28:22;33.90;55.60
25570;DHT22;17955;45.542;9.238;2022-07-18T06:30:51;34.10;55.60
25570;DHT22;17955;45.542;9.238;2022-07-18T06:33:18;34.40;55.40
25570;DHT22;17955;45.542;9.238;2022-07-18T06:35:46;34.20;55.10
25570;DHT22;17955;45.542;9.238;2022-07-18T06:38:14;34.50;54.70
25570;DHT22;17955;45.542;9.238;2022-07-18T06:40:41;34.90;53.60
25570;DHT22;17955;45.542;9.238;2022-07-18T06:43:08;35.20;53.60
25570;DHT22;17955;45.542;9.238;2022-07-18T06:45:36;35.30;52.80
25570;DHT22;17955;45.542;9.238;2022-07-18T06:48:04;35.20;52.20
25570;DHT22;17955;45.542;9.238;2022-07-18T06:50:31;34.80;52.30
25570;DHT22;17955;45.542;9.238;2022-07-18T06:52:58;34.10;52.70
25570;DHT22;17955;45.542;9.238;2022-07-18T06:55:25;33.30;53.70
25570;DHT22;17955;45.542;9.238;2022-07-18T06:57:52;33.30;54.00
25570;DHT22;17955;45.542;9.238;2022-07-18T07:00:19;33.10;54.70
25570;DHT22;17955;45.542;9.238;2022-07-18T07:02:48;33.60;53.70
25570;DHT22;17955;45.542;9.238;2022-07-18T07:05:18;34.00;52.90
25570;DHT22;17955;45.542;9.238;2022-07-18T07:07:45;34.30;52.60
25570;DHT22;17955;45.542;9.238;2022-07-18T07:10:13;34.50;52.20
25570;DHT22;17955;45.542;9.238;2022-07-18T07:12:40;34.40;52.20
25570;DHT22;17955;45.542;9.238;2022-07-18T07:15:09;34.40;52.50
25570;DHT22;17955;45.542;9.238;2022-07-18T07:17:38;34.50;52.10
25570;DHT22;17955;45.542;9.238;2022-07-18T07:20:06;34.60;52.00
25570;DHT22;17955;45.542;9.238;2022-07-18T07:22:42;34.40;51.40
25570;DHT22;17955;45.542;9.238;2022-07-18T07:25:09;34.30;51.10
25570;DHT22;17955;45.542;9.238;2022-07-18T07:27:36;34.10;51.70
25570;DHT22;17955;45.542;9.238;2022-07-18T07:30:04;33.90;51.90
25570;DHT22;17955;45.542;9.238;2022-07-18T07:32:34;33.90;52.10
25570;DHT22;17955;45.542;9.238;2022-07-18T07:35:02;34.00;52.20
25570;DHT22;17955;45.542;9.238;2022-07-18T07:37:29;33.70;52.00
25570;DHT22;17955;45.542;9.238;2022-07-18T07:39:57;33.30;52.80
25570;DHT22;17955;45.542;9.238;2022-07-18T07:42:24;33.10;52.80
25570;DHT22;17955;45.542;9.238;2022-07-18T07:44:51;32.90;52.60
25570;DHT22;17955;45.542;9.238;2022-07-18T07:47:18;32.80;52.90
25570;DHT22;17955;45.542;9.238;2022-07-18T07:49:45;32.80;53.00
25570;DHT22;17955;45.542;9.238;2022-07-18T07:52:12;32.90;53.30
25570;DHT22;17955;45.542;9.238;2022-07-18T07:54:40;32.70;53.10
25570;DHT22;17955;45.542;9.238;2022-07-18T07:57:08;32.70;53.30
25570;DHT22;17955;45.542;9.238;2022-07-18T07:59:35;33.00;53.40
25570;DHT22;17955;45.542;9.238;2022-07-18T08:02:02;32.90;53.10
25570;DHT22;17955;45.542;9.238;2022-07-18T08:04:30;33.00;53.40
25570;DHT22;17955;45.542;9.238;2022-07-18T08:06:57;33.10;53.20
25570;DHT22;17955;45.542;9.238;2022-07-18T08:09:24;33.00;53.20
25570;DHT22;17955;45.542;9.238;2022-07-18T08:11:51;32.90;53.40
25570;DHT22;17955;45.542;9.238;2022-07-18T08:14:19;33.10;53.60
25570;DHT22;17955;45.542;9.238;2022-07-18T08:16:46;33.40;53.60
25570;DHT22;17955;45.542;9.238;2022-07-18T08:19:13;33.80;53.30
25570;DHT22;17955;45.542;9.238;2022-07-18T08:21:40;34.10;52.90
25570;DHT22;17955;45.542;9.238;2022-07-18T08:24:07;34.70;52.30
25570;DHT22;17955;45.542;9.238;2022-07-18T08:26:34;34.70;52.00
25570;DHT22;17955;45.542;9.238;2022-07-18T08:29:04;34.90;51.60
25570;DHT22;17955;45.542;9.238;2022-07-18T08:31:33;34.70;51.30
25570;DHT22;17955;45.542;9.238;2022-07-18T08:34:00;34.50;51.90
25570;DHT22;17955;45.542;9.238;2022-07-18T08:36:27;34.70;51.60
25570;DHT22;17955;45.542;9.238;2022-07-18T08:38:54;34.60;51.40
25570;DHT22;17955;45.542;9.238;2022-07-18T08:41:22;34.50;51.50
25570;DHT22;17955;45.542;9.238;2022-07-18T08:43:50;34.40;51.70
25570;DHT22;17955;45.542;9.238;2022-07-18T08:46:20;34.20;51.70
25570;DHT22;17955;45.542;9.238;2022-07-18T08:48:49;34.10;51.90
25570;DHT22;17955;45.542;9.238;2022-07-18T08:51:18;34.20;51.90
25570;DHT22;17955;45.542;9.238;2022-07-18T08:53:47;34.20;52.10
25570;DHT22;17955;45.542;9.238;2022-07-18T08:56:14;34.40;51.90
25570;DHT22;17955;45.542;9.238;2022-07-18T08:58:41;33.90;52.10
25570;DHT22;17955;45.542;9.238;2022-07-18T09:01:08;34.00;52.50
25570;DHT22;17955;45.542;9.238;2022-07-18T09:03:35;34.30;52.40
25570;DHT22;17955;45.542;9.238;2022-07-18T09:06:04;34.40;52.20
25570;DHT22;17955;45.542;9.238;2022-07-18T09:08:32;34.40;52.30
25570;DHT22;17955;45.542;9.238;2022-07-18T09:11:00;34.50;52.20
25570;DHT22;17955;45.542;9.238;2022-07-18T09:13:36;34.60;51.80
25570;DHT22;17955;45.542;9.238;2022-07-18T09:16:04;34.50;51.90
25570;DHT22;17955;45.542;9.238;2022-07-18T09:18:33;34.40;51.60
25570;DHT22;17955;45.542;9.238;2022-07-18T09:21:01;33.80;51.30
25570;DHT22;17955;45.542;9.238;2022-07-18T09:23:32;33.50;52.10
25570;DHT22;17955;45.542;9.238;2022-07-18T09:25:59;33.50;52.60
25570;DHT22;17955;45.542;9.238;2022-07-18T09:28:27;33.80;52.30
25570;DHT22;17955;45.542;9.238;2022-07-18T09:30:54;33.50;52.50
25570;DHT22;17955;45.542;9.238;2022-07-18T09:33:22;33.50;52.70
25570;DHT22;17955;45.542;9.238;2022-07-18T09:35:51;33.30;52.90
25570;DHT22;17955;45.542;9.238;2022-07-18T09:38:20;33.50;52.80
25570;DHT22;17955;45.542;9.238;2022-07-18T09:40:53;33.60;52.50
25570;DHT22;17955;45.542;9.238;2022-07-18T09:43:24;33.40;52.40
25570;DHT22;17955;45.542;9.238;2022-07-18T09:45:53;33.10;52.90
25570;DHT22;17955;45.542;9.238;2022-07-18T09:48:22;33.40;52.90
25570;DHT22;17955;45.542;9.238;2022-07-18T09:50:51;33.70;52.80
25570;DHT22;17955;45.542;9.238;2022-07-18T09:53:19;34.10;52.70
25570;DHT22;17955;45.542;9.238;2022-07-18T09:55:51;34.10;52.10
25570;DHT22;17955;45.542;9.238;2022-07-18T09:58:21;34.00;52.30
25570;DHT22;17955;45.542;9.238;2022-07-18T10:00:49;34.00;52.50
25570;DHT22;17955;45.542;9.238;2022-07-18T10:03:17;33.80;52.60
25570;DHT22;17955;45.542;9.238;2022-07-18T10:05:46;33.70;52.80
25570;DHT22;17955;45.542;9.238;2022-07-18T10:08:15;33.60;52.90
25570;DHT22;17955;45.542;9.238;2022-07-18T10:10:44;33.30;53.30
25570;DHT22;17955;45.542;9.238;2022-07-18T10:13:12;33.50;53.40
25570;DHT22;17955;45.542;9.238;2022-07-18T10:15:41;33.90;53.00
25570;DHT22;17955;45.542;9.238;2022-07-18T10:18:10;34.10;52.50
25570;DHT22;17955;45.542;9.238;2022-07-18T10:20:39;34.10;52.60
25570;DHT22;17955;45.542;9.238;2022-07-18T10:23:12;34.10;52.60
25570;DHT22;17955;45.542;9.238;2022-07-18T10:25:40;34.10;52.70
25570;DHT22;17955;45.542;9.238;2022-07-18T10:28:09;33.90;52.40
25570;DHT22;17955;45.542;9.238;2022-07-18T10:30:41;33.80;52.80
25570;DHT22;17955;45.542;9.238;2022-07-18T10:33:37;33.90;53.00
25570;DHT22;17955;45.542;9.238;2022-07-18T10:36:09;33.70;53.40
25570;DHT22;17955;45.542;9.238;2022-07-18T10:38:36;33.40;53.90
25570;DHT22;17955;45.542;9.238;2022-07-18T10:41:10;33.30;54.20
25570;DHT22;17955;45.542;9.238;2022-07-18T10:43:39;33.40;54.10
25570;DHT22;17955;45.542;9.238;2022-07-18T10:46:09;33.40;54.10
25570;DHT22;17955;45.542;9.238;2022-07-18T10:48:56;33.30;54.30
25570;DHT22;17955;45.542;9.238;2022-07-18T10:51:34;33.20;54.20
25570;DHT22;17955;45.542;9.238;2022-07-18T10:54:11;33.00;54.70
25570;DHT22;17955;45.542;9.238;2022-07-18T10:57:06;32.80;55.30
25570;DHT22;17955;45.542;9.238;2022-07-18T10:59:33;32.60;55.90
25570;DHT22;17955;45.542;9.238;2022-07-18T11:02:05;32.50;56.00
25570;DHT22;17955;45.542;9.238;2022-07-18T11:04:38;32.50;56.10
25570;DHT22;17955;45.542;9.238;2022-07-18T11:07:09;32.70;56.00
25570;DHT22;17955;45.542;9.238;2022-07-18T11:09:40;32.70;55.80
25570;DHT22;17955;45.542;9.238;2022-07-18T11:12:24;32.80;55.70
25570;DHT22;17955;45.542;9.238;2022-07-18T11:17:58;32.80;57.00
25570;DHT22;17955;45.542;9.238;2022-07-18T11:20:28;32.90;56.50
25570;DHT22;17955;45.542;9.238;2022-07-18T11:22:55;32.90;56.30
25570;DHT22;17955;45.542;9.238;2022-07-18T11:25:25;33.00;56.20
25570;DHT22;17955;45.542;9.238;2022-07-18T11:27:53;33.10;56.10
25570;DHT22;17955;45.542;9.238;2022-07-18T11:30:21;33.10;55.60
25570;DHT22;17955;45.542;9.238;2022-07-18T11:32:49;33.00;55.50
25570;DHT22;17955;45.542;9.238;2022-07-18T11:35:22;33.00;55.30
25570;DHT22;17955;45.542;9.238;2022-07-18T11:37:51;33.00;55.20
25570;DHT22;17955;45.542;9.238;2022-07-18T11:40:18;33.00;55.40
25570;DHT22;17955;45.542;9.238;2022-07-18T11:42:45;33.00;55.50
25570;DHT22;17955;45.542;9.238;2022-07-18T11:45:14;32.90;55.60
25570;DHT22;17955;45.542;9.238;2022-07-18T11:47:46;33.00;55.40
25570;DHT22;17955;45.542;9.238;2022-07-18T11:50:16;33.10;55.50
25570;DHT22;17955;45.542;9.238;2022-07-18T11:52:45;33.10;55.30
25570;DHT22;17955;45.542;9.238;2022-07-18T11:55:13;33.20;55.20
25570;DHT22;17955;45.542;9.238;2022-07-18T11:57:40;33.10;55.40
25570;DHT22;17955;45.542;9.238;2022-07-18T12:00:15;32.90;55.50
25570;DHT22;17955;45.542;9.238;2022-07-18T12:03:07;32.90;55.50
25570;DHT22;17955;45.542;9.238;2022-07-18T12:05:37;33.00;55.40
25570;DHT22;17955;45.542;9.238;2022-07-18T12:08:31;32.90;55.50
25570;DHT22;17955;45.542;9.238;2022-07-18T12:11:13;32.90;55.50
25570;DHT22;17955;45.542;9.238;2022-07-18T12:13:44;33.10;55.50
25570;DHT22;17955;45.542;9.238;2022-07-18T12:16:26;33.10;55.10
25570;DHT22;17955;45.542;9.238;2022-07-18T12:18:54;33.10;55.20
25570;DHT22;17955;45.542;9.238;2022-07-18T12:21:22;33.30;55.20
25570;DHT22;17955;45.542;9.238;2022-07-18T12:23:50;33.60;54.90
25570;DHT22;17955;45.542;9.238;2022-07-18T12:26:28;33.70;54.50
25570;DHT22;17955;45.542;9.238;2022-07-18T12:29:05;34.00;54.10
25570;DHT22;17955;45.542;9.238;2022-07-18T12:31:43;34.00;53.90
25570;DHT22;17955;45.542;9.238;2022-07-18T12:34:11;34.00;54.10
25570;DHT22;17955;45.542;9.238;2022-07-18T12:36:55;34.00;54.10
25570;DHT22;17955;45.542;9.238;2022-07-18T12:39:28;34.10;53.70
25570;DHT22;17955;45.542;9.238;2022-07-18T12:41:55;34.50;53.50
25570;DHT22;17955;45.542;9.238;2022-07-18T12:44:23;34.60;53.50
25570;DHT22;17955;45.542;9.238;2022-07-18T12:46:50;34.20;53.50
25570;DHT22;17955;45.542;9.238;2022-07-18T12:49:17;34.00;54.30
25570;DHT22;17955;45.542;9.238;2022-07-18T12:51:44;33.70;54.10
25570;DHT22;17955;45.542;9.238;2022-07-18T12:54:11;33.80;54.20
25570;DHT22;17955;45.542;9.238;2022-07-18T12:56:40;34.10;54.10
25570;DHT22;17955;45.542;9.238;2022-07-18T12:59:07;34.30;54.00
25570;DHT22;17955;45.542;9.238;2022-07-18T13:01:34;34.30;53.80
25570;DHT22;17955;45.542;9.238;2022-07-18T13:04:03;34.30;54.00
25570;DHT22;17955;45.542;9.238;2022-07-18T13:06:30;34.40;54.10
25570;DHT22;17955;45.542;9.238;2022-07-18T13:08:57;34.50;54.00
25570;DHT22;17955;45.542;9.238;2022-07-18T13:11:24;34.50;54.00
25570;DHT22;17955;45.542;9.238;2022-07-18T13:13:52;34.30;54.80
25570;DHT22;17955;45.542;9.238;2022-07-18T13:16:19;34.30;54.30
25570;DHT22;17955;45.542;9.238;2022-07-18T13:18:46;34.20;54.30
25570;DHT22;17955;45.542;9.238;2022-07-18T13:21:13;34.20;54.50
25570;DHT22;17955;45.542;9.238;2022-07-18T13:23:42;34.50;54.20
25570;DHT22;17955;45.542;9.238;2022-07-18T13:26:09;34.50;54.20
25570;DHT22;17955;45.542;9.238;2022-07-18T13:28:36;34.50;54.30
25570;DHT22;17955;45.542;9.238;2022-07-18T13:31:04;34.60;54.40
25570;DHT22;17955;45.542;9.238;2022-07-18T13:33:31;34.60;54.50
25570;DHT22;17955;45.542;9.238;2022-07-18T13:35:58;34.60;54.60
25570;DHT22;17955;45.542;9.238;2022-07-18T13:38:25;34.60;54.40
25570;DHT22;17955;45.542;9.238;2022-07-18T13:40:52;34.40;54.60
25570;DHT22;17955;45.542;9.238;2022-07-18T13:43:19;34.40;54.70
25570;DHT22;17955;45.542;9.238;2022-07-18T13:45:46;34.60;54.70
25570;DHT22;17955;45.542;9.238;2022-07-18T13:48:14;34.50;54.70
25570;DHT22;17955;45.542;9.238;2022-07-18T13:50:41;34.30;54.90
25570;DHT22;17955;45.542;9.238;2022-07-18T13:53:08;34.20;55.40
25570;DHT22;17955;45.542;9.238;2022-07-18T13:55:35;34.50;55.00
25570;DHT22;17955;45.542;9.238;2022-07-18T13:58:02;34.60;54.80
25570;DHT22;17955;45.542;9.238;2022-07-18T14:00:29;34.80;54.50
25570;DHT22;17955;45.542;9.238;2022-07-18T14:02:56;34.50;54.50
25570;DHT22;17955;45.542;9.238;2022-07-18T14:05:24;34.10;55.50
25570;DHT22;17955;45.542;9.238;2022-07-18T14:07:51;34.00;55.40
25570;DHT22;17955;45.542;9.238;2022-07-18T14:10:18;33.80;55.40
25570;DHT22;17955;45.542;9.238;2022-07-18T14:12:45;33.90;55.60
25570;DHT22;17955;45.542;9.238;2022-07-18T14:15:12;33.90;55.60
25570;DHT22;17955;45.542;9.238;2022-07-18T14:17:40;34.10;55.50
25570;DHT22;17955;45.542;9.238;2022-07-18T14:20:08;34.20;55.30
25570;DHT22;17955;45.542;9.238;2022-07-18T14:22:37;34.30;55.30
25570;DHT22;17955;45.542;9.238;2022-07-18T14:25:05;34.10;55.40
25570;DHT22;17955;45.542;9.238;2022-07-18T14:27:33;34.00;55.50
25570;DHT22;17955;45.542;9.238;2022-07-18T14:30:00;34.00;55.50
25570;DHT22;17955;45.542;9.238;2022-07-18T14:32:27;34.30;55.30
25570;DHT22;17955;45.542;9.238;2022-07-18T14:34:55;34.50;55.10
25570;DHT22;17955;45.542;9.238;2022-07-18T14:37:22;34.60;54.90
25570;DHT22;17955;45.542;9.238;2022-07-18T14:39:50;34.60;55.20
25570;DHT22;17955;45.542;9.238;2022-07-18T14:42:17;34.50;55.90
25570;DHT22;17955;45.542;9.238;2022-07-18T14:44:44;34.40;55.50
25570;DHT22;17955;45.542;9.238;2022-07-18T14:47:11;34.50;55.50
25570;DHT22;17955;45.542;9.238;2022-07-18T14:49:38;34.60;55.40
25570;DHT22;17955;45.542;9.238;2022-07-18T14:52:05;34.60;55.40
25570;DHT22;17955;45.542;9.238;2022-07-18T14:54:32;34.60;55.40
25570;DHT22;17955;45.542;9.238;2022-07-18T14:57:00;34.50;55.50
25570;DHT22;17955;45.542;9.238;2022-07-18T14:59:28;34.70;55.50
25570;DHT22;17955;45.542;9.238;2022-07-18T15:01:55;34.30;55.70
25570;DHT22;17955;45.542;9.238;2022-07-18T15:04:24;34.20;56.10
25570;DHT22;17955;45.542;9.238;2022-07-18T15:06:51;34.10;56.40
25570;DHT22;17955;45.542;9.238;2022-07-18T15:09:18;34.00;56.50
25570;DHT22;17955;45.542;9.238;2022-07-18T15:11:45;33.90;56.70
25570;DHT22;17955;45.542;9.238;2022-07-18T15:14:13;34.00;56.60
25570;DHT22;17955;45.542;9.238;2022-07-18T15:16:40;33.70;56.80
25570;DHT22;17955;45.542;9.238;2022-07-18T15:19:07;33.70;56.60
25570;DHT22;17955;45.542;9.238;2022-07-18T15:21:34;33.70;56.70
25570;DHT22;17955;45.542;9.238;2022-07-18T15:24:01;33.70;56.70
25570;DHT22;17955;45.542;9.238;2022-07-18T15:26:29;34.00;57.10
25570;DHT22;17955;45.542;9.238;2022-07-18T15:28:56;34.10;56.50
25570;DHT22;17955;45.542;9.238;2022-07-18T15:31:25;34.40;56.20
25570;DHT22;17955;45.542;9.238;2022-07-18T15:33:52;34.20;56.20
25570;DHT22;17955;45.542;9.238;2022-07-18T15:36:19;34.30;56.20
25570;DHT22;17955;45.542;9.238;2022-07-18T15:38:46;34.40;56.20
25570;DHT22;17955;45.542;9.238;2022-07-18T15:41:13;34.40;56.30